Time;durP1;ratioP1;P1;durP2;ratioP2;P2;SDS_P1;SDS_P2;PMS_P1;PMS_P2;Temp;Humidity;BMP_temperature;BMP_pressure;BME280_temperature;BME280_humidity;BME280_pressure;Samples;Min_cycle;Max_cycle;Signal;HPM_P1;HPM_P2
2021/03/06 00:00:35;;;;;;;6.97;5.53;;;0.00;99.90;;;;;;5015435;28;20088;-80
2021/03/06 00:03:01;;;;;;;8.10;5.32;;;-0.20;99.90;;;;;;5007059;28;20078;-81
2021/03/06 00:05:28;;;;;;;9.77;6.45;;;-0.50;99.90;;;;;;5017431;28;20121;-80
2021/03/06 00:07:57;;;;;;;11.73;7.05;;;-0.80;99.90;;;;;;5016860;28;20160;-80
2021/03/06 00:10:23;;;;;;;11.13;7.18;;;-0.80;99.90;;;;;;5015515;28;20074;-81
2021/03/06 00:12:50;;;;;;;9.88;7.10;;;-0.80;99.90;;;;;;5005196;28;20078;-81
2021/03/06 00:15:19;;;;;;;8.50;6.28;;;-0.60;99.90;;;;;;5026958;28;20096;-81
2021/03/06 00:17:45;;;;;;;7.55;5.75;;;-0.30;99.90;;;;;;5035516;28;20159;-80
2021/03/06 00:20:13;;;;;;;8.27;5.80;;;-0.10;99.90;;;;;;5014529;28;20109;-80
2021/03/06 00:22:39;;;;;;;7.38;5.47;;;0.00;99.90;;;;;;5003063;28;20715;-80
2021/03/06 00:25:08;;;;;;;7.95;6.13;;;0.10;99.90;;;;;;5011359;28;20075;-80
2021/03/06 00:27:34;;;;;;;7.88;5.88;;;0.10;99.90;;;;;;5017379;28;20572;-80
2021/03/06 00:30:00;;;;;;;6.57;5.30;;;-0.10;99.90;;;;;;5006203;28;20089;-81
2021/03/06 00:32:26;;;;;;;10.45;5.60;;;0.00;99.90;;;;;;5036190;28;20078;-80
2021/03/06 00:34:51;;;;;;;7.47;5.70;;;0.00;99.90;;;;;;5018438;28;20772;-80
2021/03/06 00:37:17;;;;;;;6.63;4.60;;;0.20;99.90;;;;;;5016521;28;20104;-80
2021/03/06 00:39:43;;;;;;;6.80;4.88;;;0.20;99.90;;;;;;5012426;28;20074;-80
2021/03/06 00:42:08;;;;;;;11.13;5.32;;;0.00;99.90;;;;;;5003218;28;20079;-80
2021/03/06 00:44:34;;;;;;;7.15;5.15;;;-0.20;99.90;;;;;;5000083;28;20082;-80
2021/03/06 00:47:00;;;;;;;5.82;4.85;;;-0.30;99.90;;;;;;5024667;28;20864;-80
2021/03/06 00:49:25;;;;;;;9.68;4.53;;;-0.60;99.90;;;;;;5009965;28;20082;-80
2021/03/06 00:51:51;;;;;;;12.05;5.85;;;-0.50;99.90;;;;;;4999738;28;20077;-81
2021/03/06 00:54:17;;;;;;;8.00;5.50;;;-0.70;99.90;;;;;;5015279;28;20078;-80
2021/03/06 00:56:43;;;;;;;8.15;5.15;;;-0.70;99.90;;;;;;5001140;28;20098;-80
2021/03/06 00:59:08;;;;;;;9.30;5.47;;;-0.40;99.90;;;;;;5008143;28;20161;-80
2021/03/06 01:01:34;;;;;;;11.35;5.63;;;-0.50;99.90;;;;;;4998902;28;20152;-80
2021/03/06 01:04:00;;;;;;;7.07;4.88;;;-0.20;99.90;;;;;;5005128;28;20522;-79
2021/03/06 01:06:26;;;;;;;11.85;5.50;;;-0.30;99.90;;;;;;5015112;28;20636;-79
2021/03/06 01:08:52;;;;;;;8.48;5.47;;;-0.10;99.90;;;;;;5015287;28;20092;-80
2021/03/06 01:11:17;;;;;;;7.55;5.70;;;-0.10;99.90;;;;;;5004113;28;20453;-80
2021/03/06 01:13:43;;;;;;;7.10;4.85;;;0.00;99.90;;;;;;4995017;28;20077;-80
2021/03/06 01:16:09;;;;;;;9.40;5.55;;;0.00;99.90;;;;;;4994455;28;20569;-79
2021/03/06 01:18:34;;;;;;;9.35;5.43;;;0.00;99.90;;;;;;5011209;28;20085;-80
2021/03/06 01:21:00;;;;;;;8.27;5.68;;;0.10;99.90;;;;;;5010727;28;20074;-79
2021/03/06 01:23:26;;;;;;;10.43;5.43;;;0.10;99.90;;;;;;4997243;28;20087;-80
2021/03/06 01:25:52;;;;;;;8.00;5.28;;;0.10;99.90;;;;;;5012695;28;20105;-80
2021/03/06 01:28:17;;;;;;;9.82;5.47;;;0.10;99.90;;;;;;5012488;28;20083;-80
2021/03/06 01:30:43;;;;;;;8.18;5.53;;;0.00;99.90;;;;;;5006253;28;20078;-79
2021/03/06 01:33:09;;;;;;;10.68;5.45;;;0.00;99.90;;;;;;5018011;28;20518;-80
2021/03/06 01:35:35;;;;;;;8.30;4.95;;;-0.20;99.90;;;;;;5024428;28;20098;-80
2021/03/06 01:38:01;;;;;;;8.25;5.43;;;-0.10;99.90;;;;;;5002084;28;20094;-81
2021/03/06 01:40:32;;;;;;;8.43;5.20;;;0.00;99.90;;;;;;5000765;28;20113;-80
2021/03/06 01:42:58;;;;;;;5.90;4.28;;;-0.10;99.90;;;;;;5012279;28;20318;-83
2021/03/06 01:45:24;;;;;;;9.75;4.65;;;-0.40;99.90;;;;;;5009034;28;20102;-83
2021/03/06 01:47:51;;;;;;;6.50;4.63;;;-0.50;99.90;;;;;;5026907;28;20755;-81
2021/03/06 01:50:41;;;;;;;8.20;5.15;;;-0.70;99.90;;;;;;5001874;28;20540;-81
2021/03/06 01:53:09;;;;;;;7.70;5.00;;;-0.40;99.90;;;;;;5007859;28;20175;-80
2021/03/06 01:55:37;;;;;;;7.68;4.65;;;-0.50;99.90;;;;;;5007566;28;20121;-81
2021/03/06 01:58:04;;;;;;;8.65;4.78;;;-0.50;99.90;;;;;;5007164;28;20128;-79
2021/03/06 02:00:30;;;;;;;6.82;4.65;;;-0.70;99.90;;;;;;5016619;28;20086;-79
2021/03/06 02:02:58;;;;;;;6.60;4.45;;;-0.70;99.90;;;;;;5007729;28;20079;-79
2021/03/06 02:05:24;;;;;;;8.32;4.70;;;-0.60;99.90;;;;;;5008299;28;20102;-79
2021/03/06 02:07:50;;;;;;;6.05;4.82;;;-0.60;99.90;;;;;;5014276;28;20078;-80
2021/03/06 02:10:19;;;;;;;9.45;5.32;;;-0.70;99.90;;;;;;5028719;28;20105;-80
2021/03/06 02:13:00;;;;;;;9.20;5.13;;;-0.80;99.90;;;;;;5013538;28;20089;-79
2021/03/06 02:15:45;;;;;;;6.95;5.07;;;-0.50;99.90;;;;;;5003619;28;20102;-80
2021/03/06 02:18:20;;;;;;;7.43;4.82;;;-0.50;99.90;;;;;;5005773;28;20121;-81
2021/03/06 02:21:12;;;;;;;7.25;4.57;;;-0.50;99.90;;;;;;5002027;28;20097;-80
2021/03/06 02:24:00;;;;;;;7.38;4.45;;;-0.40;99.90;;;;;;5000621;28;20082;-81
2021/03/06 02:26:41;;;;;;;8.43;5.35;;;-0.40;99.90;;;;;;5012896;28;20588;-80
2021/03/06 02:29:27;;;;;;;18.55;5.20;;;-0.70;99.90;;;;;;5022194;28;20702;-80
2021/03/06 02:31:56;;;;;;;5.80;4.22;;;-1.10;99.90;;;;;;5029201;28;20078;-81
2021/03/06 02:34:28;;;;;;;9.27;4.85;;;-1.20;99.90;;;;;;5013076;28;20232;-80
2021/03/06 02:36:57;;;;;;;6.85;4.50;;;-0.90;99.90;;;;;;5026332;28;20545;-80
2021/03/06 02:39:26;;;;;;;7.57;4.93;;;-0.60;99.90;;;;;;5003612;28;20212;-80
2021/03/06 02:41:55;;;;;;;7.68;4.38;;;-0.80;99.90;;;;;;4997932;28;20078;-81
2021/03/06 02:44:23;;;;;;;6.72;4.13;;;-0.70;99.90;;;;;;5017119;28;20110;-80
2021/03/06 02:46:49;;;;;;;6.57;4.82;;;-0.60;99.90;;;;;;5000676;28;20090;-80
2021/03/06 02:49:14;;;;;;;5.35;3.95;;;-0.40;99.90;;;;;;5016018;28;20112;-80
2021/03/06 02:51:42;;;;;;;7.20;4.70;;;-0.60;99.90;;;;;;5005203;28;20070;-79
2021/03/06 02:54:10;;;;;;;6.13;4.13;;;-0.90;99.90;;;;;;5012498;28;20093;-79
2021/03/06 02:56:37;;;;;;;6.60;4.75;;;-0.90;99.90;;;;;;5006526;28;20090;-80
2021/03/06 02:59:27;;;;;;;6.85;4.53;;;-0.80;99.90;;;;;;5000410;28;20492;-78
2021/03/06 03:01:58;;;;;;;6.95;3.95;;;-1.00;99.90;;;;;;4998988;28;20070;-80
2021/03/06 03:04:48;;;;;;;5.55;3.58;;;-1.00;99.90;;;;;;4997324;28;20085;-80
2021/03/06 03:07:27;;;;;;;6.50;4.00;;;-1.00;99.90;;;;;;5002075;28;20096;-81
2021/03/06 03:09:59;;;;;;;6.40;4.22;;;-1.20;99.90;;;;;;4998815;28;20165;-80
2021/03/06 03:12:29;;;;;;;5.47;3.58;;;-1.00;99.90;;;;;;4998423;28;20074;-80
2021/03/06 03:15:22;;;;;;;5.18;4.15;;;-0.90;99.90;;;;;;5002534;28;20074;-80
2021/03/06 03:17:51;;;;;;;6.75;3.90;;;-0.80;99.90;;;;;;5007558;28;20102;-80
2021/03/06 03:20:34;;;;;;;6.95;4.05;;;-1.10;99.90;;;;;;5010019;28;20125;-80
2021/03/06 03:23:23;;;;;;;5.03;3.67;;;-1.20;99.90;;;;;;5026081;28;20078;-81
2021/03/06 03:25:49;;;;;;;6.45;4.20;;;-1.40;99.90;;;;;;4996714;28;20094;-80
2021/03/06 03:28:16;;;;;;;6.82;3.65;;;-1.50;99.90;;;;;;5007483;28;20082;-81
2021/03/06 03:30:42;;;;;;;4.43;3.50;;;-1.20;99.90;;;;;;5014827;28;20081;-81
2021/03/06 03:33:10;;;;;;;9.68;4.85;;;-1.00;99.90;;;;;;5013227;28;20086;-81
2021/03/06 03:35:39;;;;;;;6.45;3.10;;;-1.00;99.90;;;;;;5013240;28;20161;-81
2021/03/06 03:38:05;;;;;;;6.15;4.32;;;-0.80;99.90;;;;;;5012903;28;20094;-81
2021/03/06 03:40:33;;;;;;;6.43;3.97;;;-0.70;99.90;;;;;;4996817;28;20070;-80
2021/03/06 03:42:59;;;;;;;7.70;4.15;;;-0.80;99.90;;;;;;5001661;28;20089;-80
2021/03/06 03:45:26;;;;;;;5.93;3.67;;;-0.80;99.90;;;;;;5026003;28;20090;-80
2021/03/06 03:47:52;;;;;;;6.15;3.67;;;-0.70;99.90;;;;;;4987892;28;20102;-80
2021/03/06 03:50:19;;;;;;;6.82;3.85;;;-1.00;99.90;;;;;;5018287;28;20089;-80
2021/03/06 03:52:47;;;;;;;6.38;3.90;;;-1.20;99.90;;;;;;5013870;28;20089;-80
2021/03/06 03:55:14;;;;;;;6.18;3.50;;;-1.30;99.90;;;;;;5002706;28;20150;-80
2021/03/06 03:57:42;;;;;;;4.88;2.97;;;-1.10;99.90;;;;;;5000272;28;20102;-79
2021/03/06 04:00:11;;;;;;;5.15;3.40;;;-1.30;99.90;;;;;;5011008;28;20082;-80
2021/03/06 04:02:37;;;;;;;6.68;3.58;;;-1.50;99.90;;;;;;5011262;28;20169;-80
2021/03/06 04:05:07;;;;;;;7.15;3.45;;;-1.40;99.90;;;;;;5000892;28;20558;-80
2021/03/06 04:07:47;;;;;;;4.85;2.90;;;-1.20;99.90;;;;;;5018389;28;20166;-80
2021/03/06 04:10:19;;;;;;;6.38;3.63;;;-1.10;99.90;;;;;;5016067;28;20082;-80
2021/03/06 04:12:46;;;;;;;4.85;3.67;;;-1.20;99.90;;;;;;5013845;28;20095;-80
2021/03/06 04:15:14;;;;;;;5.68;3.38;;;-1.50;99.90;;;;;;5010523;28;20086;-79
2021/03/06 04:17:41;;;;;;;4.32;3.15;;;-1.40;99.90;;;;;;5019131;28;20185;-80
2021/03/06 04:20:09;;;;;;;6.10;3.72;;;-1.40;99.90;;;;;;5000097;28;20078;-80
2021/03/06 04:22:35;;;;;;;4.78;3.22;;;-1.60;99.90;;;;;;5010565;28;20078;-79
2021/03/06 04:25:01;;;;;;;4.97;3.50;;;-1.40;99.90;;;;;;5010531;28;20086;-80
2021/03/06 04:27:27;;;;;;;4.30;3.47;;;-1.30;99.90;;;;;;5016226;28;20101;-79
2021/03/06 04:29:53;;;;;;;7.03;3.70;;;-1.20;99.90;;;;;;5013456;28;20083;-80
2021/03/06 04:32:19;;;;;;;6.47;4.00;;;-1.20;99.90;;;;;;5023425;28;20090;-79
2021/03/06 04:34:45;;;;;;;6.13;3.42;;;-1.30;99.90;;;;;;5004719;28;20461;-80
2021/03/06 04:37:11;;;;;;;6.05;3.92;;;-1.30;99.90;;;;;;5014919;28;20097;-80
2021/03/06 04:39:37;;;;;;;5.38;3.42;;;-1.10;99.90;;;;;;5009560;28;20073;-79
2021/03/06 04:42:03;;;;;;;5.20;3.35;;;-1.50;99.90;;;;;;4999418;28;20166;-80
2021/03/06 04:44:28;;;;;;;7.07;3.97;;;-1.70;99.90;;;;;;5015591;28;20109;-80
2021/03/06 04:46:55;;;;;;;5.88;3.42;;;-1.40;99.90;;;;;;5010426;28;20092;-80
2021/03/06 04:49:21;;;;;;;5.47;3.78;;;-1.10;99.90;;;;;;5017815;28;20081;-79
2021/03/06 04:51:46;;;;;;;5.28;3.70;;;-1.10;99.90;;;;;;5014456;28;20217;-80
2021/03/06 04:54:12;;;;;;;5.20;3.50;;;-1.40;99.90;;;;;;5028000;28;20092;-79
2021/03/06 04:56:38;;;;;;;5.38;3.35;;;-1.30;99.90;;;;;;5012275;28;20102;-80
2021/03/06 04:59:03;;;;;;;6.22;4.07;;;-1.20;99.90;;;;;;5012680;28;20525;-80
2021/03/06 05:01:29;;;;;;;6.82;3.80;;;-1.50;99.90;;;;;;5011142;28;20086;-79
2021/03/06 05:03:55;;;;;;;4.95;3.13;;;-1.40;99.90;;;;;;4996642;28;20082;-79
2021/03/06 05:06:21;;;;;;;5.30;3.78;;;-1.40;99.90;;;;;;5011465;28;20093;-79
2021/03/06 05:08:46;;;;;;;6.50;3.88;;;-1.40;99.90;;;;;;5020837;28;20089;-80
2021/03/06 05:11:12;;;;;;;6.80;3.45;;;-1.50;99.90;;;;;;5005348;28;20644;-80
2021/03/06 05:13:38;;;;;;;7.18;3.75;;;-1.40;99.90;;;;;;5025536;28;20120;-80
2021/03/06 05:16:04;;;;;;;4.90;3.80;;;-1.50;99.90;;;;;;5012899;28;20098;-80
2021/03/06 05:18:31;;;;;;;5.78;3.67;;;-1.60;99.90;;;;;;5007582;28;20105;-79
2021/03/06 05:20:58;;;;;;;8.93;4.30;;;-1.80;99.90;;;;;;5013390;28;20097;-80
2021/03/06 05:23:25;;;;;;;4.88;3.63;;;-1.50;99.90;;;;;;5002168;28;20078;-79
2021/03/06 05:25:51;;;;;;;11.88;4.68;;;-1.30;99.90;;;;;;5027949;28;20094;-82
2021/03/06 05:28:20;;;;;;;6.85;4.25;;;-1.60;99.90;;;;;;5007260;28;20084;-82
2021/03/06 05:30:47;;;;;;;4.80;3.88;;;-1.70;99.90;;;;;;5014879;28;20158;-82
2021/03/06 05:33:14;;;;;;;5.55;4.28;;;-1.60;99.90;;;;;;5004029;28;20496;-82
2021/03/06 05:35:40;;;;;;;7.97;4.72;;;-1.70;99.90;;;;;;5003263;28;20120;-81
2021/03/06 05:38:06;;;;;;;6.28;4.13;;;-1.90;99.90;;;;;;5012314;28;20132;-81
2021/03/06 05:40:37;;;;;;;7.10;4.25;;;-1.80;99.90;;;;;;4999029;28;20132;-81
2021/03/06 05:43:03;;;;;;;8.10;4.88;;;-1.90;99.90;;;;;;4999014;28;20090;-81
2021/03/06 05:45:30;;;;;;;8.48;4.90;;;-1.90;99.90;;;;;;5015418;28;20100;-80
2021/03/06 05:47:59;;;;;;;5.97;4.63;;;-1.80;99.90;;;;;;5010691;28;20078;-79
2021/03/06 05:50:26;;;;;;;9.07;4.95;;;-1.80;99.90;;;;;;4999244;28;20090;-79
2021/03/06 05:52:52;;;;;;;6.60;4.72;;;-1.80;99.90;;;;;;5003727;28;20448;-79
2021/03/06 05:55:19;;;;;;;5.97;4.25;;;-1.80;99.90;;;;;;5014556;28;20088;-79
2021/03/06 05:57:47;;;;;;;8.85;5.60;;;-2.00;99.90;;;;;;5014239;28;20108;-79
2021/03/06 06:00:13;;;;;;;12.98;5.93;;;-2.00;99.90;;;;;;5022507;28;20106;-78
2021/03/06 06:02:40;;;;;;;8.80;5.00;;;-1.80;99.90;;;;;;5002606;28;20102;-79
2021/03/06 06:05:06;;;;;;;10.10;5.72;;;-1.90;99.90;;;;;;5002934;28;20129;-78
2021/03/06 06:07:35;;;;;;;12.57;5.57;;;-2.10;99.90;;;;;;4997298;28;20078;-80
2021/03/06 06:10:01;;;;;;;7.85;4.82;;;-2.00;99.90;;;;;;5021314;28;20089;-79
2021/03/06 06:12:27;;;;;;;8.65;4.75;;;-1.90;99.90;;;;;;5003216;28;20090;-79
2021/03/06 06:14:53;;;;;;;7.97;4.38;;;-1.80;99.90;;;;;;5014900;28;20173;-79
2021/03/06 06:17:22;;;;;;;6.75;4.07;;;-1.70;99.90;;;;;;5022940;28;20105;-80
2021/03/06 06:19:48;;;;;;;6.47;3.80;;;-1.60;99.90;;;;;;4999562;28;20082;-79
2021/03/06 06:22:24;;;;;;;5.40;3.97;;;-1.40;99.90;;;;;;5016411;28;20074;-80
2021/03/06 06:24:51;;;;;;;5.47;3.38;;;-1.80;99.90;;;;;;5008910;28;20102;-80
2021/03/06 06:27:21;;;;;;;4.90;3.38;;;-1.90;99.90;;;;;;5014582;28;20176;-81
2021/03/06 06:29:52;;;;;;;9.15;4.78;;;-1.60;99.90;;;;;;5024642;28;20098;-79
2021/03/06 06:32:23;;;;;;;8.35;4.18;;;-1.70;99.90;;;;;;5003040;28;20113;-84
2021/03/06 06:35:01;;;;;;;7.38;3.67;;;-1.60;99.90;;;;;;5013885;28;20086;-80
2021/03/06 06:37:28;;;;;;;7.60;3.65;;;-1.60;99.90;;;;;;5009539;28;20157;-79
2021/03/06 06:39:53;;;;;;;5.32;3.42;;;-1.60;99.90;;;;;;5005581;28;20109;-80
2021/03/06 06:42:29;;;;;;;5.97;3.88;;;-1.70;99.90;;;;;;5006907;28;20086;-79
2021/03/06 06:44:56;;;;;;;5.70;3.58;;;-1.50;99.90;;;;;;5025058;28;20089;-79
2021/03/06 06:47:23;;;;;;;5.80;3.70;;;-1.60;99.90;;;;;;5003987;28;20113;-81
2021/03/06 06:49:53;;;;;;;7.25;3.10;;;-1.60;99.90;;;;;;5011516;28;20082;-82
2021/03/06 06:52:22;;;;;;;8.50;4.03;;;-1.60;99.90;;;;;;5010669;28;20584;-81
2021/03/06 06:55:08;;;;;;;8.70;2.88;;;-1.60;99.90;;;;;;5013205;28;20085;-81
2021/03/06 06:57:34;;;;;;;4.85;3.17;;;-1.50;99.90;;;;;;5007425;28;20295;-80
2021/03/06 07:00:07;;;;;;;5.78;4.22;;;-1.40;99.90;;;;;;5015503;28;20559;-81
2021/03/06 07:02:33;;;;;;;4.88;2.80;;;-1.20;99.90;;;;;;5009920;28;20086;-80
2021/03/06 07:05:01;;;;;;;7.05;3.17;;;-1.40;99.90;;;;;;5015791;28;20173;-82
2021/03/06 07:07:39;;;;;;;5.50;3.00;;;-1.30;99.90;;;;;;5011693;28;20853;-80
2021/03/06 07:10:05;;;;;;;3.55;2.40;;;-1.20;99.90;;;;;;5010818;28;20089;-79
2021/03/06 07:12:33;;;;;;;6.43;2.95;;;-1.20;99.90;;;;;;4994958;28;20078;-79
2021/03/06 07:15:01;;;;;;;3.67;2.72;;;-1.10;99.90;;;;;;5005942;28;20218;-80
2021/03/06 07:17:38;;;;;;;5.18;2.90;;;-1.10;99.90;;;;;;5011608;28;20568;-80
2021/03/06 07:20:06;;;;;;;4.18;2.72;;;-1.10;99.90;;;;;;4995923;28;20093;-78
2021/03/06 07:22:32;;;;;;;3.53;2.53;;;-1.00;99.90;;;;;;5005193;28;20078;-78
2021/03/06 07:24:59;;;;;;;5.75;2.80;;;-0.90;99.90;;;;;;5011949;28;20166;-78
2021/03/06 07:27:24;;;;;;;5.72;3.28;;;-0.80;99.90;;;;;;5012740;28;20125;-78
2021/03/06 07:29:53;;;;;;;4.38;2.40;;;-0.70;99.90;;;;;;5025779;28;20185;-78
2021/03/06 07:32:23;;;;;;;4.80;2.83;;;-0.40;99.90;;;;;;5007917;28;20117;-79
2021/03/06 07:34:52;;;;;;;4.18;2.38;;;-0.40;99.90;;;;;;5005125;28;20082;-79
2021/03/06 07:37:20;;;;;;;2.97;2.38;;;-0.40;99.90;;;;;;5003709;28;20109;-78
2021/03/06 07:39:50;;;;;;;3.20;2.13;;;-0.30;99.90;;;;;;5009827;28;20173;-79
2021/03/06 07:42:24;;;;;;;6.70;2.35;;;-0.10;99.90;;;;;;5000265;28;20075;-79
2021/03/06 07:44:53;;;;;;;3.65;2.13;;;0.10;99.90;;;;;;5016771;28;20082;-79
2021/03/06 07:47:23;;;;;;;3.35;2.40;;;0.00;99.90;;;;;;4999161;28;20125;-79
2021/03/06 07:49:51;;;;;;;4.38;2.55;;;-0.10;99.90;;;;;;4998234;28;20121;-79
2021/03/06 07:52:18;;;;;;;5.25;2.30;;;0.00;99.90;;;;;;4998818;28;20106;-79
2021/03/06 07:54:44;;;;;;;3.90;2.58;;;0.00;99.90;;;;;;5014503;28;20149;-79
2021/03/06 07:57:12;;;;;;;3.53;2.25;;;0.00;99.90;;;;;;5011939;28;20188;-78
2021/03/06 07:59:55;;;;;;;2.80;1.98;;;0.00;99.90;;;;;;5009770;28;20083;-80
2021/03/06 08:02:34;;;;;;;3.22;2.25;;;0.10;99.90;;;;;;5005510;28;20078;-79
2021/03/06 08:05:00;;;;;;;4.65;2.33;;;-0.10;99.90;;;;;;5020946;28;20078;-79
2021/03/06 08:07:58;;;;;;;4.13;2.50;;;0.00;99.90;;;;;;5001361;28;20121;-80
2021/03/06 08:10:24;;;;;;;3.70;2.33;;;0.50;99.90;;;;;;4958727;28;20091;-80
2021/03/06 08:12:50;;;;;;;4.68;2.20;;;0.50;99.90;;;;;;5013888;28;20074;-80
2021/03/06 08:15:32;;;;;;;3.60;1.88;;;0.60;99.90;;;;;;5001735;28;20169;-79
2021/03/06 08:18:00;;;;;;;5.75;2.83;;;0.20;99.90;;;;;;4998162;28;20172;-80
2021/03/06 08:20:31;;;;;;;4.32;2.53;;;0.30;99.90;;;;;;5008317;28;20084;-79
2021/03/06 08:23:23;;;;;;;4.45;2.58;;;0.20;99.90;;;;;;5024474;28;20066;-79
2021/03/06 08:26:17;;;;;;;3.63;2.22;;;0.30;99.90;;;;;;5004997;28;20094;-79
2021/03/06 08:28:43;;;;;;;5.03;2.33;;;0.60;99.90;;;;;;5017446;28;20437;-80
2021/03/06 08:31:38;;;;;;;4.85;3.15;;;0.70;99.90;;;;;;5007425;28;20078;-80
2021/03/06 08:34:39;;;;;;;3.03;2.20;;;1.00;98.50;;;;;;4999260;28;20154;-78
2021/03/06 08:39:56;;;;;;;4.60;2.45;;;0.90;99.90;;;;;;5017415;28;20135;-81
2021/03/06 08:42:29;;;;;;;3.13;2.33;;;1.10;99.20;;;;;;5022562;28;20116;-81
2021/03/06 08:45:00;;;;;;;4.97;2.85;;;1.30;99.40;;;;;;5015336;28;20098;-81
2021/03/06 08:47:31;;;;;;;5.82;2.58;;;1.40;98.20;;;;;;5007213;28;20098;-81
2021/03/06 08:49:58;;;;;;;4.75;2.35;;;1.30;98.70;;;;;;5007727;28;20078;-81
2021/03/06 08:52:28;;;;;;;4.53;2.33;;;1.10;97.10;;;;;;5013568;28;20117;-81
2021/03/06 08:54:54;;;;;;;6.75;2.88;;;0.90;99.70;;;;;;5004524;28;20458;-81
2021/03/06 08:57:31;;;;;;;4.95;2.33;;;1.00;99.90;;;;;;5008553;28;20098;-81
2021/03/06 08:59:58;;;;;;;3.00;2.28;;;1.30;99.70;;;;;;5005195;28;20160;-78
2021/03/06 09:02:30;;;;;;;3.58;2.40;;;1.50;99.90;;;;;;5006123;28;20070;-79
2021/03/06 09:05:10;;;;;;;5.15;3.05;;;1.50;98.40;;;;;;5001824;28;20102;-81
2021/03/06 09:07:38;;;;;;;6.65;2.30;;;1.30;99.30;;;;;;5005625;28;20073;-81
2021/03/06 09:10:21;;;;;;;4.97;2.40;;;1.20;99.90;;;;;;5013360;28;20078;-82
2021/03/06 09:12:50;;;;;;;4.32;2.42;;;1.20;99.30;;;;;;5010849;28;20074;-82
2021/03/06 09:15:37;;;;;;;4.28;2.63;;;1.20;99.90;;;;;;5017054;28;20078;-81
2021/03/06 09:18:05;;;;;;;4.43;2.50;;;1.10;99.50;;;;;;5016120;28;20082;-81
2021/03/06 09:20:35;;;;;;;4.00;2.75;;;1.30;98.30;;;;;;5013468;28;20078;-82
2021/03/06 09:23:01;;;;;;;3.45;2.83;;;1.50;99.50;;;;;;5016474;28;20074;-80
2021/03/06 09:25:38;;;;;;;8.13;2.88;;;1.80;99.90;;;;;;5012727;28;20098;-81
2021/03/06 09:28:07;;;;;;;5.47;2.35;;;2.00;97.90;;;;;;5014985;28;20082;-81
2021/03/06 09:30:39;;;;;;;4.53;2.80;;;2.00;97.50;;;;;;5017506;28;20074;-81
2021/03/06 09:33:20;;;;;;;5.72;3.03;;;2.20;96.60;;;;;;5017879;28;20203;-81
2021/03/06 09:36:04;;;;;;;3.70;2.50;;;2.20;99.20;;;;;;5016116;28;20113;-81
2021/03/06 09:38:31;;;;;;;3.67;2.50;;;2.20;99.90;;;;;;5006211;28;20449;-81
2021/03/06 09:40:58;;;;;;;4.53;2.70;;;1.90;95.50;;;;;;5016169;28;20532;-79
2021/03/06 09:43:29;;;;;;;3.33;2.50;;;1.80;97.80;;;;;;5013872;28;20086;-78
2021/03/06 09:45:56;;;;;;;5.45;3.08;;;2.10;98.20;;;;;;5005009;28;20098;-80
2021/03/06 09:48:23;;;;;;;5.07;2.80;;;2.10;95.10;;;;;;5002746;28;20092;-82
2021/03/06 09:50:53;;;;;;;3.63;2.47;;;2.10;96.90;;;;;;5012132;28;20483;-79
2021/03/06 09:53:28;;;;;;;5.00;2.95;;;2.30;93.70;;;;;;5007119;28;20098;-80
2021/03/06 09:56:05;;;;;;;;;;;2.10;93.70;;;;;;4998995;28;20136;-81
2021/03/06 09:58:31;;;;;;;4.10;2.63;;;1.90;92.40;;;;;;5002179;28;19989;-79
2021/03/06 10:01:20;;;;;;;5.75;3.10;;;1.90;92.20;;;;;;5003488;28;20081;-79
2021/03/06 10:03:47;;;;;;;4.63;2.55;;;2.00;92.90;;;;;;5000503;28;20579;-77
2021/03/06 10:06:18;;;;;;;4.47;2.53;;;1.90;93.00;;;;;;5013190;28;20086;-76
2021/03/06 10:08:49;;;;;;;4.68;2.47;;;1.80;91.40;;;;;;5011391;28;20082;-77
2021/03/06 10:11:48;;;;;;;3.42;2.72;;;2.00;92.70;;;;;;5011175;28;20075;-78
2021/03/06 10:14:32;;;;;;;4.20;2.97;;;2.00;91.30;;;;;;5015419;28;20070;-76
2021/03/06 10:17:04;;;;;;;5.37;2.97;;;2.30;93.00;;;;;;5009368;28;20098;-77
2021/03/06 10:19:32;;;;;;;5.38;3.38;;;2.30;92.30;;;;;;5007076;28;20329;-77
2021/03/06 10:22:07;;;;;;;5.85;3.40;;;2.30;92.10;;;;;;5024114;28;20074;-77
2021/03/06 10:24:58;;;;;;;3.30;2.47;;;2.40;90.20;;;;;;5012107;28;20077;-77
2021/03/06 10:27:45;;;;;;;5.20;2.80;;;2.40;89.90;;;;;;5011139;28;20122;-77
2021/03/06 10:30:22;;;;;;;4.72;3.17;;;2.50;92.00;;;;;;5000993;28;20143;-79
2021/03/06 10:32:56;;;;;;;4.95;2.90;;;2.40;92.50;;;;;;5003505;28;20066;-79
2021/03/06 10:35:34;;;;;;;4.82;3.05;;;2.30;91.10;;;;;;5016185;28;20082;-78
2021/03/06 10:38:05;;;;;;;5.75;2.95;;;2.20;88.50;;;;;;5015772;28;20107;-83
2021/03/06 10:40:57;;;;;;;4.35;2.88;;;2.30;90.90;;;;;;5009782;28;20110;-79
2021/03/06 10:43:40;;;;;;;3.78;2.80;;;2.40;89.70;;;;;;5009285;28;20209;-81
2021/03/06 10:46:14;;;;;;;4.63;2.97;;;2.40;89.20;;;;;;5017190;28;20177;-81
2021/03/06 10:48:41;;;;;;;5.00;3.20;;;2.50;92.30;;;;;;5005534;28;20083;-79
2021/03/06 10:51:08;;;;;;;5.55;3.22;;;2.50;91.70;;;;;;5005916;28;20074;-79
2021/03/06 10:53:33;;;;;;;5.97;4.60;;;2.50;84.50;;;;;;5020343;28;20081;-79
2021/03/06 10:56:01;;;;;;;8.70;6.28;;;2.60;89.20;;;;;;5004319;28;20090;-79
2021/03/06 10:58:43;;;;;;;5.78;3.70;;;2.50;86.70;;;;;;5013657;28;20163;-79
2021/03/06 11:01:09;;;;;;;5.32;3.05;;;2.60;87.90;;;;;;5005339;28;20069;-79
2021/03/06 11:03:45;;;;;;;4.75;3.15;;;2.60;89.00;;;;;;5013503;28;20072;-80
2021/03/06 11:06:12;;;;;;;13.10;6.45;;;2.60;81.10;;;;;;5003818;28;20560;-79
2021/03/06 11:08:39;;;;;;;16.33;8.55;;;2.60;85.00;;;;;;5013825;28;20093;-79
2021/03/06 11:11:08;;;;;;;6.18;3.85;;;2.60;87.50;;;;;;5013845;28;20144;-79
2021/03/06 11:13:42;;;;;;;8.77;5.13;;;2.70;89.00;;;;;;5007222;28;20497;-79
2021/03/06 11:16:12;;;;;;;7.78;4.28;;;2.90;92.00;;;;;;5007587;28;20189;-79
2021/03/06 11:18:43;;;;;;;6.03;3.45;;;3.00;92.30;;;;;;5014097;28;20125;-79
2021/03/06 11:21:14;;;;;;;8.23;4.45;;;2.80;90.10;;;;;;5017281;28;20125;-80
2021/03/06 11:23:41;;;;;;;11.80;5.68;;;2.70;91.10;;;;;;5013483;28;20077;-79
2021/03/06 11:26:07;;;;;;;9.63;4.97;;;2.70;90.70;;;;;;5002555;28;20107;-79
2021/03/06 11:28:33;;;;;;;6.22;3.65;;;2.80;91.30;;;;;;5030998;28;20093;-80
2021/03/06 11:31:01;;;;;;;4.93;3.75;;;2.80;91.20;;;;;;5004132;28;20153;-79
2021/03/06 11:33:27;;;;;;;5.47;3.45;;;2.70;90.20;;;;;;5009744;28;20078;-78
2021/03/06 11:35:53;;;;;;;4.38;3.03;;;2.70;88.80;;;;;;5001814;28;20094;-79
2021/03/06 11:38:23;;;;;;;3.97;2.90;;;2.90;92.40;;;;;;4997787;28;20104;-78
2021/03/06 11:40:51;;;;;;;4.57;2.85;;;2.90;91.80;;;;;;5005204;28;20079;-79
2021/03/06 11:43:17;;;;;;;3.72;2.83;;;2.90;90.90;;;;;;5021544;28;20157;-79
2021/03/06 11:45:42;;;;;;;4.82;2.90;;;2.90;92.90;;;;;;5013532;28;20189;-79
2021/03/06 11:48:09;;;;;;;4.90;3.10;;;3.00;91.60;;;;;;5013347;28;20078;-79
2021/03/06 11:50:37;;;;;;;4.90;3.47;;;3.00;92.20;;;;;;4996447;28;20082;-79
2021/03/06 11:53:03;;;;;;;4.47;2.67;;;2.90;90.40;;;;;;4997208;28;20592;-80
2021/03/06 11:55:29;;;;;;;5.32;2.92;;;3.00;91.60;;;;;;4996161;28;20638;-79
2021/03/06 11:57:55;;;;;;;7.30;3.15;;;3.10;91.60;;;;;;4998369;28;20086;-79
2021/03/06 12:00:24;;;;;;;4.05;3.00;;;3.00;91.20;;;;;;5009299;28;20078;-79
2021/03/06 12:02:50;;;;;;;6.53;3.17;;;3.00;91.00;;;;;;5014886;28;20510;-79
2021/03/06 12:05:16;;;;;;;3.85;2.70;;;3.20;93.70;;;;;;5009727;28;20074;-80
2021/03/06 12:07:43;;;;;;;5.50;3.25;;;3.40;92.80;;;;;;5012799;28;20078;-79
2021/03/06 12:10:15;;;;;;;5.05;3.00;;;3.50;92.20;;;;;;4996581;28;20079;-79
2021/03/06 12:12:42;;;;;;;4.22;2.90;;;3.40;91.40;;;;;;5057374;23;20136;-72
2021/03/06 12:15:08;;;;;;;5.65;3.58;;;3.40;93.20;;;;;;5009372;28;20086;-74
2021/03/06 12:17:34;;;;;;;5.20;3.70;;;3.60;92.60;;;;;;5009397;28;20086;-75
2021/03/06 12:20:00;;;;;;;4.20;3.15;;;3.60;90.20;;;;;;5009243;28;20669;-74
2021/03/06 12:22:26;;;;;;;5.22;3.42;;;3.40;91.00;;;;;;5028853;28;20120;-74
2021/03/06 12:24:51;;;;;;;6.45;3.88;;;3.30;93.00;;;;;;5026731;28;20081;-73
2021/03/06 12:27:17;;;;;;;7.97;4.50;;;3.30;92.60;;;;;;5025782;28;20112;-74
2021/03/06 12:29:43;;;;;;;5.15;3.25;;;3.40;92.50;;;;;;5027419;28;20104;-74
2021/03/06 12:32:10;;;;;;;8.23;3.40;;;3.40;92.10;;;;;;5005014;28;20078;-73
2021/03/06 12:34:35;;;;;;;6.68;3.80;;;3.40;91.70;;;;;;5029604;28;20081;-74
2021/03/06 12:37:02;;;;;;;4.45;3.33;;;3.40;91.90;;;;;;5026736;28;20082;-75
2021/03/06 12:39:27;;;;;;;4.75;3.50;;;3.20;90.80;;;;;;5024588;28;20176;-76
2021/03/06 12:41:53;;;;;;;6.25;3.88;;;3.40;92.10;;;;;;5011432;28;20153;-75
2021/03/06 12:44:20;;;;;;;7.88;4.30;;;3.40;90.90;;;;;;5014065;28;20107;-73
2021/03/06 12:46:47;;;;;;;8.00;4.25;;;3.40;91.00;;;;;;5010080;28;20212;-75
2021/03/06 12:49:17;;;;;;;5.30;3.65;;;3.40;91.90;;;;;;5026353;28;20074;-75
2021/03/06 12:51:42;;;;;;;5.38;3.60;;;3.50;91.10;;;;;;5042329;28;20653;-74
2021/03/06 12:54:08;;;;;;;5.97;3.80;;;3.50;90.50;;;;;;5027555;28;20090;-76
2021/03/06 12:56:34;;;;;;;4.53;3.55;;;3.60;90.30;;;;;;5021810;28;20074;-76
2021/03/06 12:59:00;;;;;;;7.05;3.63;;;3.70;90.70;;;;;;5004702;28;20233;-73
2021/03/06 13:01:26;;;;;;;4.00;3.17;;;3.70;89.10;;;;;;5024701;28;20592;-75
2021/03/06 13:03:52;;;;;;;3.42;2.78;;;4.00;90.40;;;;;;5034364;28;20669;-74
2021/03/06 13:06:18;;;;;;;6.50;3.33;;;4.00;85.80;;;;;;5036632;28;20073;-75